sensor_id;sensor_type;location;lat;lon;timestamp;temperature;humidity
4604;DHT22;2314;48.272;11.562;2022-08-14T00:00:08;14.00;99.90
4604;DHT22;2314;48.272;11.562;2022-08-14T00:02:38;14.00;99.90
4604;DHT22;2314;48.272;11.562;2022-08-14T00:05:08;13.90;99.90
4604;DHT22;2314;48.272;11.562;2022-08-14T00:07:36;13.90;99.90
4604;DHT22;2314;48.272;11.562;2022-08-14T00:10:06;13.90;99.90
4604;DHT22;2314;48.272;11.562;2022-08-14T00:12:38;13.80;99.90
4604;DHT22;2314;48.272;11.562;2022-08-14T00:15:11;13.80;99.90
4604;DHT22;2314;48.272;11.562;2022-08-14T00:17:40;13.80;99.90
4604;DHT22;2314;48.272;11.562;2022-08-14T00:20:10;13.70;99.90
4604;DHT22;2314;48.272;11.562;2022-08-14T00:22:37;13.70;99.90
4604;DHT22;2314;48.272;11.562;2022-08-14T00:25:06;13.60;99.90
4604;DHT22;2314;48.272;11.562;2022-08-14T00:27:34;13.60;99.90
4604;DHT22;2314;48.272;11.562;2022-08-14T00:30:03;13.50;99.90
4604;DHT22;2314;48.272;11.562;2022-08-14T00:32:32;13.50;99.90
4604;DHT22;2314;48.272;11.562;2022-08-14T00:35:00;13.50;99.90
4604;DHT22;2314;48.272;11.562;2022-08-14T00:37:29;13.40;99.90
4604;DHT22;2314;48.272;11.562;2022-08-14T00:39:56;13.40;99.90
4604;DHT22;2314;48.272;11.562;2022-08-14T00:42:23;13.40;99.90
4604;DHT22;2314;48.272;11.562;2022-08-14T00:44:51;13.30;99.90
4604;DHT22;2314;48.272;11.562;2022-08-14T00:47:19;13.30;99.90
4604;DHT22;2314;48.272;11.562;2022-08-14T00:49:49;13.30;99.90
4604;DHT22;2314;48.272;11.562;2022-08-14T00:52:17;13.20;99.90
4604;DHT22;2314;48.272;11.562;2022-08-14T00:54:49;13.20;99.90
4604;DHT22;2314;48.272;11.562;2022-08-14T00:57:19;13.20;99.90
4604;DHT22;2314;48.272;11.562;2022-08-14T00:59:47;13.20;99.90
4604;DHT22;2314;48.272;11.562;2022-08-14T01:02:16;13.20;99.90
4604;DHT22;2314;48.272;11.562;2022-08-14T01:04:50;13.20;99.90
4604;DHT22;2314;48.272;11.562;2022-08-14T01:07:19;13.10;99.90
4604;DHT22;2314;48.272;11.562;2022-08-14T01:09:49;13.10;99.90
4604;DHT22;2314;48.272;11.562;2022-08-14T01:12:18;13.10;99.90
4604;DHT22;2314;48.272;11.562;2022-08-14T01:14:45;13.10;99.90
4604;DHT22;2314;48.272;11.562;2022-08-14T01:17:20;13.00;99.90
4604;DHT22;2314;48.272;11.562;2022-08-14T01:19:48;13.00;99.90
4604;DHT22;2314;48.272;11.562;2022-08-14T01:22:34;13.00;99.90
4604;DHT22;2314;48.272;11.562;2022-08-14T01:25:01;13.00;99.90
4604;DHT22;2314;48.272;11.562;2022-08-14T01:27:28;13.00;99.90
4604;DHT22;2314;48.272;11.562;2022-08-14T01:29:56;13.00;99.90
4604;DHT22;2314;48.272;11.562;2022-08-14T01:32:24;12.90;99.90
4604;DHT22;2314;48.272;11.562;2022-08-14T01:34:54;12.90;99.90
4604;DHT22;2314;48.272;11.562;2022-08-14T01:37:22;12.90;99.90
4604;DHT22;2314;48.272;11.562;2022-08-14T01:39:51;12.80;99.90
4604;DHT22;2314;48.272;11.562;2022-08-14T01:42:19;12.80;99.90
4604;DHT22;2314;48.272;11.562;2022-08-14T01:44:46;12.80;99.90
4604;DHT22;2314;48.272;11.562;2022-08-14T01:47:15;12.70;99.90
4604;DHT22;2314;48.272;11.562;2022-08-14T01:49:44;12.80;99.90
4604;DHT22;2314;48.272;11.562;2022-08-14T01:52:11;12.70;99.90
4604;DHT22;2314;48.272;11.562;2022-08-14T01:54:38;12.70;99.90
4604;DHT22;2314;48.272;11.562;2022-08-14T01:57:06;12.70;99.90
4604;DHT22;2314;48.272;11.562;2022-08-14T01:59:36;12.70;99.90
4604;DHT22;2314;48.272;11.562;2022-08-14T02:02:08;12.70;99.90
4604;DHT22;2314;48.272;11.562;2022-08-14T02:04:38;12.60;99.90
4604;DHT22;2314;48.272;11.562;2022-08-14T02:07:07;12.60;99.90
4604;DHT22;2314;48.272;11.562;2022-08-14T02:09:35;12.60;99.90
4604;DHT22;2314;48.272;11.562;2022-08-14T02:12:05;12.60;99.90
4604;DHT22;2314;48.272;11.562;2022-08-14T02:14:33;12.60;99.90
4604;DHT22;2314;48.272;11.562;2022-08-14T02:17:01;12.50;99.90
4604;DHT22;2314;48.272;11.562;2022-08-14T02:19:30;12.50;99.90
4604;DHT22;2314;48.272;11.562;2022-08-14T02:22:00;12.50;99.90
4604;DHT22;2314;48.272;11.562;2022-08-14T02:24:29;12.50;99.90
4604;DHT22;2314;48.272;11.562;2022-08-14T02:26:57;12.50;99.90
4604;DHT22;2314;48.272;11.562;2022-08-14T02:29:29;12.50;99.90
4604;DHT22;2314;48.272;11.562;2022-08-14T02:31:58;12.50;99.90
4604;DHT22;2314;48.272;11.562;2022-08-14T02:34:27;12.50;99.90
4604;DHT22;2314;48.272;11.562;2022-08-14T02:37:00;12.40;99.90
4604;DHT22;2314;48.272;11.562;2022-08-14T02:39:29;12.40;99.90
4604;DHT22;2314;48.272;11.562;2022-08-14T02:41:57;12.40;99.90
4604;DHT22;2314;48.272;11.562;2022-08-14T02:44:26;12.30;99.90
4604;DHT22;2314;48.272;11.562;2022-08-14T02:46:54;12.30;99.90
4604;DHT22;2314;48.272;11.562;2022-08-14T02:49:22;12.30;99.90
4604;DHT22;2314;48.272;11.562;2022-08-14T02:51:52;12.30;99.90
4604;DHT22;2314;48.272;11.562;2022-08-14T02:54:20;12.20;99.90
4604;DHT22;2314;48.272;11.562;2022-08-14T02:56:47;12.20;99.90
4604;DHT22;2314;48.272;11.562;2022-08-14T02:59:16;12.20;99.90
4604;DHT22;2314;48.272;11.562;2022-08-14T03:01:44;12.20;99.90
4604;DHT22;2314;48.272;11.562;2022-08-14T03:04:12;12.20;99.90
4604;DHT22;2314;48.272;11.562;2022-08-14T03:06:40;12.10;99.90
4604;DHT22;2314;48.272;11.562;2022-08-14T03:09:09;12.10;99.90
4604;DHT22;2314;48.272;11.562;2022-08-14T03:11:37;12.10;99.90
4604;DHT22;2314;48.272;11.562;2022-08-14T03:14:06;12.10;99.90
4604;DHT22;2314;48.272;11.562;2022-08-14T03:16:37;12.10;99.90
4604;DHT22;2314;48.272;11.562;2022-08-14T03:19:07;12.00;99.90
4604;DHT22;2314;48.272;11.562;2022-08-14T03:21:36;12.00;99.90
4604;DHT22;2314;48.272;11.562;2022-08-14T03:24:05;12.00;99.90
4604;DHT22;2314;48.272;11.562;2022-08-14T03:26:37;12.00;99.90
4604;DHT22;2314;48.272;11.562;2022-08-14T03:29:05;12.00;99.90
4604;DHT22;2314;48.272;11.562;2022-08-14T03:31:33;12.00;99.90
4604;DHT22;2314;48.272;11.562;2022-08-14T03:34:01;12.00;99.90
4604;DHT22;2314;48.272;11.562;2022-08-14T03:36:30;12.00;99.90
4604;DHT22;2314;48.272;11.562;2022-08-14T03:38:59;11.90;99.90
4604;DHT22;2314;48.272;11.562;2022-08-14T03:41:28;11.90;99.90
4604;DHT22;2314;48.272;11.562;2022-08-14T03:43:57;11.90;99.90
4604;DHT22;2314;48.272;11.562;2022-08-14T03:46:27;11.90;99.90
4604;DHT22;2314;48.272;11.562;2022-08-14T03:48:55;11.90;99.90
4604;DHT22;2314;48.272;11.562;2022-08-14T03:51:23;11.90;99.90
4604;DHT22;2314;48.272;11.562;2022-08-14T03:53:53;11.90;99.90
4604;DHT22;2314;48.272;11.562;2022-08-14T03:56:21;11.90;99.90
4604;DHT22;2314;48.272;11.562;2022-08-14T03:58:52;11.90;99.90
4604;DHT22;2314;48.272;11.562;2022-08-14T04:01:22;11.90;99.90
4604;DHT22;2314;48.272;11.562;2022-08-14T04:03:52;11.90;99.90
4604;DHT22;2314;48.272;11.562;2022-08-14T04:06:22;11.90;99.90
4604;DHT22;2314;48.272;11.562;2022-08-14T04:08:51;11.80;99.90
4604;DHT22;2314;48.272;11.562;2022-08-14T04:11:19;11.90;99.90
4604;DHT22;2314;48.272;11.562;2022-08-14T04:13:46;11.90;99.90
4604;DHT22;2314;48.272;11.562;2022-08-14T04:16:15;11.90;99.90
4604;DHT22;2314;48.272;11.562;2022-08-14T04:18:46;11.90;99.90
4604;DHT22;2314;48.272;11.562;2022-08-14T04:21:16;11.90;99.90
4604;DHT22;2314;48.272;11.562;2022-08-14T04:23:43;11.90;99.90
4604;DHT22;2314;48.272;11.562;2022-08-14T04:26:14;11.90;99.90
4604;DHT22;2314;48.272;11.562;2022-08-14T04:28:44;11.90;99.90
4604;DHT22;2314;48.272;11.562;2022-08-14T04:31:11;12.00;99.90
4604;DHT22;2314;48.272;11.562;2022-08-14T04:33:39;11.90;99.90
4604;DHT22;2314;48.272;11.562;2022-08-14T04:36:06;12.00;99.90
4604;DHT22;2314;48.272;11.562;2022-08-14T04:38:34;12.00;99.90
4604;DHT22;2314;48.272;11.562;2022-08-14T04:41:20;12.00;99.90
4604;DHT22;2314;48.272;11.562;2022-08-14T04:44:04;12.00;99.90
4604;DHT22;2314;48.272;11.562;2022-08-14T04:46:34;12.00;99.90
4604;DHT22;2314;48.272;11.562;2022-08-14T04:49:02;12.10;99.90
4604;DHT22;2314;48.272;11.562;2022-08-14T04:51:29;12.10;99.90
4604;DHT22;2314;48.272;11.562;2022-08-14T04:53:57;12.10;99.90
4604;DHT22;2314;48.272;11.562;2022-08-14T04:56:27;12.20;99.90
4604;DHT22;2314;48.272;11.562;2022-08-14T04:58:58;12.30;99.90
4604;DHT22;2314;48.272;11.562;2022-08-14T05:01:29;12.30;99.90
4604;DHT22;2314;48.272;11.562;2022-08-14T05:03:56;12.30;99.90
4604;DHT22;2314;48.272;11.562;2022-08-14T05:06:23;12.30;99.90
4604;DHT22;2314;48.272;11.562;2022-08-14T05:08:50;12.40;99.90
4604;DHT22;2314;48.272;11.562;2022-08-14T05:11:18;12.50;99.90
4604;DHT22;2314;48.272;11.562;2022-08-14T05:13:46;12.50;99.90
4604;DHT22;2314;48.272;11.562;2022-08-14T05:16:14;12.60;99.90
4604;DHT22;2314;48.272;11.562;2022-08-14T05:18:41;12.60;99.90
4604;DHT22;2314;48.272;11.562;2022-08-14T05:21:08;12.70;99.90
4604;DHT22;2314;48.272;11.562;2022-08-14T05:23:37;12.70;99.90
4604;DHT22;2314;48.272;11.562;2022-08-14T05:26:06;12.80;99.90
4604;DHT22;2314;48.272;11.562;2022-08-14T05:28:39;12.90;99.90
4604;DHT22;2314;48.272;11.562;2022-08-14T05:31:11;12.90;99.90
4604;DHT22;2314;48.272;11.562;2022-08-14T05:33:43;13.00;99.90
4604;DHT22;2314;48.272;11.562;2022-08-14T05:36:11;13.10;99.90
4604;DHT22;2314;48.272;11.562;2022-08-14T05:38:41;13.20;99.90
4604;DHT22;2314;48.272;11.562;2022-08-14T05:41:11;13.30;99.90
4604;DHT22;2314;48.272;11.562;2022-08-14T05:43:40;13.40;99.90
4604;DHT22;2314;48.272;11.562;2022-08-14T05:46:11;13.50;99.90
4604;DHT22;2314;48.272;11.562;2022-08-14T05:48:40;13.60;99.90
4604;DHT22;2314;48.272;11.562;2022-08-14T05:51:07;13.70;99.90
4604;DHT22;2314;48.272;11.562;2022-08-14T05:53:34;13.80;99.90
4604;DHT22;2314;48.272;11.562;2022-08-14T05:56:01;14.10;99.90
4604;DHT22;2314;48.272;11.562;2022-08-14T05:58:28;14.50;99.90
4604;DHT22;2314;48.272;11.562;2022-08-14T06:00:56;14.70;99.90
4604;DHT22;2314;48.272;11.562;2022-08-14T06:03:24;14.90;99.90
4604;DHT22;2314;48.272;11.562;2022-08-14T06:05:53;15.20;99.90
4604;DHT22;2314;48.272;11.562;2022-08-14T06:08:22;15.40;99.90
4604;DHT22;2314;48.272;11.562;2022-08-14T06:10:53;15.70;99.90
4604;DHT22;2314;48.272;11.562;2022-08-14T06:13:21;15.80;99.90
4604;DHT22;2314;48.272;11.562;2022-08-14T06:15:49;16.00;99.90
4604;DHT22;2314;48.272;11.562;2022-08-14T06:18:16;16.00;99.90
4604;DHT22;2314;48.272;11.562;2022-08-14T06:20:45;16.00;99.90
4604;DHT22;2314;48.272;11.562;2022-08-14T06:23:12;16.00;99.90
4604;DHT22;2314;48.272;11.562;2022-08-14T06:25:39;16.10;99.90
4604;DHT22;2314;48.272;11.562;2022-08-14T06:28:06;16.10;99.90
4604;DHT22;2314;48.272;11.562;2022-08-14T06:30:34;16.20;99.90
4604;DHT22;2314;48.272;11.562;2022-08-14T06:33:01;16.40;99.90
4604;DHT22;2314;48.272;11.562;2022-08-14T06:35:28;16.50;99.90
4604;DHT22;2314;48.272;11.562;2022-08-14T06:37:58;16.70;99.90
4604;DHT22;2314;48.272;11.562;2022-08-14T06:40:28;16.90;99.90
4604;DHT22;2314;48.272;11.562;2022-08-14T06:42:57;17.20;99.90
4604;DHT22;2314;48.272;11.562;2022-08-14T06:45:24;17.40;99.90
4604;DHT22;2314;48.272;11.562;2022-08-14T06:47:52;17.50;99.90
4604;DHT22;2314;48.272;11.562;2022-08-14T06:50:21;17.60;99.90
4604;DHT22;2314;48.272;11.562;2022-08-14T06:52:48;17.60;99.90
4604;DHT22;2314;48.272;11.562;2022-08-14T06:55:17;17.70;99.90
4604;DHT22;2314;48.272;11.562;2022-08-14T06:57:46;17.70;99.90
4604;DHT22;2314;48.272;11.562;2022-08-14T07:00:18;17.90;99.90
4604;DHT22;2314;48.272;11.562;2022-08-14T07:02:46;18.00;99.90
4604;DHT22;2314;48.272;11.562;2022-08-14T07:05:31;18.20;99.90
4604;DHT22;2314;48.272;11.562;2022-08-14T07:08:12;18.40;99.90
4604;DHT22;2314;48.272;11.562;2022-08-14T07:10:42;18.70;99.90
4604;DHT22;2314;48.272;11.562;2022-08-14T07:13:10;19.00;99.90
4604;DHT22;2314;48.272;11.562;2022-08-14T07:15:39;19.30;99.90
4604;DHT22;2314;48.272;11.562;2022-08-14T07:18:07;19.50;99.90
4604;DHT22;2314;48.272;11.562;2022-08-14T07:20:35;19.50;99.90
4604;DHT22;2314;48.272;11.562;2022-08-14T07:23:04;19.50;99.90
4604;DHT22;2314;48.272;11.562;2022-08-14T07:25:33;19.60;99.90
4604;DHT22;2314;48.272;11.562;2022-08-14T07:28:08;19.60;99.90
4604;DHT22;2314;48.272;11.562;2022-08-14T07:30:36;19.70;99.90
4604;DHT22;2314;48.272;11.562;2022-08-14T07:33:04;19.90;99.90
4604;DHT22;2314;48.272;11.562;2022-08-14T07:35:32;20.00;99.90
4604;DHT22;2314;48.272;11.562;2022-08-14T07:38:00;20.10;99.90
4604;DHT22;2314;48.272;11.562;2022-08-14T07:40:27;20.20;99.90
4604;DHT22;2314;48.272;11.562;2022-08-14T07:42:54;20.40;99.90
4604;DHT22;2314;48.272;11.562;2022-08-14T07:45:23;20.70;98.20
4604;DHT22;2314;48.272;11.562;2022-08-14T07:47:50;21.10;98.30
4604;DHT22;2314;48.272;11.562;2022-08-14T07:50:18;21.20;96.60
4604;DHT22;2314;48.272;11.562;2022-08-14T07:52:47;21.30;96.70
4604;DHT22;2314;48.272;11.562;2022-08-14T07:55:16;21.30;97.10
4604;DHT22;2314;48.272;11.562;2022-08-14T07:57:45;21.30;96.50
4604;DHT22;2314;48.272;11.562;2022-08-14T08:00:15;21.40;96.90
4604;DHT22;2314;48.272;11.562;2022-08-14T08:02:48;21.50;97.60
4604;DHT22;2314;48.272;11.562;2022-08-14T08:05:18;21.60;95.70
4604;DHT22;2314;48.272;11.562;2022-08-14T08:07:46;21.60;95.50
4604;DHT22;2314;48.272;11.562;2022-08-14T08:10:15;21.70;94.80
4604;DHT22;2314;48.272;11.562;2022-08-14T08:12:57;21.80;95.20
4604;DHT22;2314;48.272;11.562;2022-08-14T08:15:27;22.00;93.80
4604;DHT22;2314;48.272;11.562;2022-08-14T08:17:57;22.10;92.80
4604;DHT22;2314;48.272;11.562;2022-08-14T08:20:26;22.20;93.40
4604;DHT22;2314;48.272;11.562;2022-08-14T08:22:54;22.40;91.70
4604;DHT22;2314;48.272;11.562;2022-08-14T08:25:23;22.60;91.50
4604;DHT22;2314;48.272;11.562;2022-08-14T08:27:56;22.70;90.40
4604;DHT22;2314;48.272;11.562;2022-08-14T08:30:24;23.00;88.40
4604;DHT22;2314;48.272;11.562;2022-08-14T08:32:54;23.20;82.90
4604;DHT22;2314;48.272;11.562;2022-08-14T08:35:25;23.60;83.70
4604;DHT22;2314;48.272;11.562;2022-08-14T08:38:00;23.90;81.50
4604;DHT22;2314;48.272;11.562;2022-08-14T08:40:31;24.20;75.50
4604;DHT22;2314;48.272;11.562;2022-08-14T08:43:02;24.80;70.00
4604;DHT22;2314;48.272;11.562;2022-08-14T08:45:31;25.30;62.50
4604;DHT22;2314;48.272;11.562;2022-08-14T08:48:01;26.10;57.60
4604;DHT22;2314;48.272;11.562;2022-08-14T08:50:32;26.80;57.70
4604;DHT22;2314;48.272;11.562;2022-08-14T08:53:02;27.00;51.60
4604;DHT22;2314;48.272;11.562;2022-08-14T08:55:32;27.50;49.50
4604;DHT22;2314;48.272;11.562;2022-08-14T08:58:03;27.60;46.60
4604;DHT22;2314;48.272;11.562;2022-08-14T09:00:33;27.90;53.60
4604;DHT22;2314;48.272;11.562;2022-08-14T09:03:06;28.20;53.40
4604;DHT22;2314;48.272;11.562;2022-08-14T09:05:35;28.40;51.90
4604;DHT22;2314;48.272;11.562;2022-08-14T09:08:15;28.80;49.60
4604;DHT22;2314;48.272;11.562;2022-08-14T09:10:43;28.70;52.60
4604;DHT22;2314;48.272;11.562;2022-08-14T09:13:11;29.00;45.10
4604;DHT22;2314;48.272;11.562;2022-08-14T09:15:43;29.10;47.60
4604;DHT22;2314;48.272;11.562;2022-08-14T09:18:15;29.80;53.90
4604;DHT22;2314;48.272;11.562;2022-08-14T09:20:46;30.00;44.70
4604;DHT22;2314;48.272;11.562;2022-08-14T09:23:15;30.10;43.60
4604;DHT22;2314;48.272;11.562;2022-08-14T09:25:44;30.10;41.70
4604;DHT22;2314;48.272;11.562;2022-08-14T09:28:13;29.90;43.10
4604;DHT22;2314;48.272;11.562;2022-08-14T09:30:44;30.10;46.70
4604;DHT22;2314;48.272;11.562;2022-08-14T09:33:27;30.00;42.60
4604;DHT22;2314;48.272;11.562;2022-08-14T09:36:11;29.20;41.80
4604;DHT22;2314;48.272;11.562;2022-08-14T09:39:03;28.90;43.50
4604;DHT22;2314;48.272;11.562;2022-08-14T09:41:46;29.30;45.10
4604;DHT22;2314;48.272;11.562;2022-08-14T09:44:26;30.30;43.50
4604;DHT22;2314;48.272;11.562;2022-08-14T09:47:10;30.30;41.50
4604;DHT22;2314;48.272;11.562;2022-08-14T09:49:40;30.50;38.80
4604;DHT22;2314;48.272;11.562;2022-08-14T09:52:09;30.10;37.50
4604;DHT22;2314;48.272;11.562;2022-08-14T09:54:39;30.20;37.80
4604;DHT22;2314;48.272;11.562;2022-08-14T09:57:08;30.20;37.40
4604;DHT22;2314;48.272;11.562;2022-08-14T09:59:43;30.50;35.50
4604;DHT22;2314;48.272;11.562;2022-08-14T10:02:20;29.90;35.40
4604;DHT22;2314;48.272;11.562;2022-08-14T10:05:06;29.40;40.30
4604;DHT22;2314;48.272;11.562;2022-08-14T10:07:36;29.20;38.70
4604;DHT22;2314;48.272;11.562;2022-08-14T10:10:27;29.50;41.90
4604;DHT22;2314;48.272;11.562;2022-08-14T10:12:55;29.50;38.10
4604;DHT22;2314;48.272;11.562;2022-08-14T10:15:25;29.90;36.70
4604;DHT22;2314;48.272;11.562;2022-08-14T10:18:07;30.50;37.80
4604;DHT22;2314;48.272;11.562;2022-08-14T10:20:41;30.60;38.20
4604;DHT22;2314;48.272;11.562;2022-08-14T10:23:18;30.70;37.50
4604;DHT22;2314;48.272;11.562;2022-08-14T10:25:48;30.30;34.70
4604;DHT22;2314;48.272;11.562;2022-08-14T10:28:17;30.50;35.40
4604;DHT22;2314;48.272;11.562;2022-08-14T10:30:46;30.90;34.80
4604;DHT22;2314;48.272;11.562;2022-08-14T10:33:26;30.40;34.70
4604;DHT22;2314;48.272;11.562;2022-08-14T10:35:56;29.80;32.00
4604;DHT22;2314;48.272;11.562;2022-08-14T10:38:28;29.40;36.10
4604;DHT22;2314;48.272;11.562;2022-08-14T10:41:08;30.10;37.70
4604;DHT22;2314;48.272;11.562;2022-08-14T10:43:38;30.10;32.30
4604;DHT22;2314;48.272;11.562;2022-08-14T10:46:12;29.90;35.50
4604;DHT22;2314;48.272;11.562;2022-08-14T10:48:41;30.00;34.20
4604;DHT22;2314;48.272;11.562;2022-08-14T10:51:11;30.60;37.70
4604;DHT22;2314;48.272;11.562;2022-08-14T10:53:41;30.40;34.50
4604;DHT22;2314;48.272;11.562;2022-08-14T10:56:10;30.60;35.20
4604;DHT22;2314;48.272;11.562;2022-08-14T10:58:38;31.30;34.80
4604;DHT22;2314;48.272;11.562;2022-08-14T11:01:05;30.80;30.50
4604;DHT22;2314;48.272;11.562;2022-08-14T11:03:37;30.40;32.10
4604;DHT22;2314;48.272;11.562;2022-08-14T11:06:15;30.00;32.20
4604;DHT22;2314;48.272;11.562;2022-08-14T11:08:46;30.10;33.60
4604;DHT22;2314;48.272;11.562;2022-08-14T11:11:15;30.20;35.40
4604;DHT22;2314;48.272;11.562;2022-08-14T11:13:44;30.60;36.20
4604;DHT22;2314;48.272;11.562;2022-08-14T11:16:13;30.10;34.20
4604;DHT22;2314;48.272;11.562;2022-08-14T11:18:44;30.50;33.90
4604;DHT22;2314;48.272;11.562;2022-08-14T11:21:16;30.80;33.20
4604;DHT22;2314;48.272;11.562;2022-08-14T11:23:48;30.60;29.90
4604;DHT22;2314;48.272;11.562;2022-08-14T11:26:17;30.80;32.20
4604;DHT22;2314;48.272;11.562;2022-08-14T11:28:46;30.30;32.70
4604;DHT22;2314;48.272;11.562;2022-08-14T11:31:15;30.90;34.60
4604;DHT22;2314;48.272;11.562;2022-08-14T11:33:48;30.70;29.10
4604;DHT22;2314;48.272;11.562;2022-08-14T11:36:22;31.10;30.00
4604;DHT22;2314;48.272;11.562;2022-08-14T11:38:53;30.50;29.20
4604;DHT22;2314;48.272;11.562;2022-08-14T11:41:20;30.70;29.90
4604;DHT22;2314;48.272;11.562;2022-08-14T11:43:48;30.70;31.00
4604;DHT22;2314;48.272;11.562;2022-08-14T11:46:16;30.60;32.00
4604;DHT22;2314;48.272;11.562;2022-08-14T11:48:45;30.50;31.00
4604;DHT22;2314;48.272;11.562;2022-08-14T11:51:15;30.20;29.40
4604;DHT22;2314;48.272;11.562;2022-08-14T11:53:52;30.50;31.40
4604;DHT22;2314;48.272;11.562;2022-08-14T11:56:20;30.20;32.00
4604;DHT22;2314;48.272;11.562;2022-08-14T11:58:51;30.90;34.60
4604;DHT22;2314;48.272;11.562;2022-08-14T12:01:24;31.30;32.30
4604;DHT22;2314;48.272;11.562;2022-08-14T12:04:06;31.80;30.50
4604;DHT22;2314;48.272;11.562;2022-08-14T12:06:44;31.70;32.10
4604;DHT22;2314;48.272;11.562;2022-08-14T12:09:27;31.60;29.20
4604;DHT22;2314;48.272;11.562;2022-08-14T12:11:55;30.70;29.10
4604;DHT22;2314;48.272;11.562;2022-08-14T12:14:22;31.00;33.30
4604;DHT22;2314;48.272;11.562;2022-08-14T12:16:58;31.60;28.90
4604;DHT22;2314;48.272;11.562;2022-08-14T12:19:25;31.60;29.90
4604;DHT22;2314;48.272;11.562;2022-08-14T12:21:53;31.20;28.50
4604;DHT22;2314;48.272;11.562;2022-08-14T12:24:27;31.10;31.00
4604;DHT22;2314;48.272;11.562;2022-08-14T12:26:56;30.60;29.20
4604;DHT22;2314;48.272;11.562;2022-08-14T12:29:23;30.50;32.30
4604;DHT22;2314;48.272;11.562;2022-08-14T12:31:58;30.20;31.80
4604;DHT22;2314;48.272;11.562;2022-08-14T12:34:32;30.60;32.90
4604;DHT22;2314;48.272;11.562;2022-08-14T12:37:03;31.00;32.40
4604;DHT22;2314;48.272;11.562;2022-08-14T12:39:32;30.80;29.50
4604;DHT22;2314;48.272;11.562;2022-08-14T12:42:01;30.70;30.80
4604;DHT22;2314;48.272;11.562;2022-08-14T12:44:34;30.60;29.90
4604;DHT22;2314;48.272;11.562;2022-08-14T12:47:06;30.50;31.50
4604;DHT22;2314;48.272;11.562;2022-08-14T12:49:36;30.70;30.30
4604;DHT22;2314;48.272;11.562;2022-08-14T12:52:03;30.90;32.80
4604;DHT22;2314;48.272;11.562;2022-08-14T12:54:33;31.20;30.60
4604;DHT22;2314;48.272;11.562;2022-08-14T12:57:05;31.00;29.80
4604;DHT22;2314;48.272;11.562;2022-08-14T12:59:33;30.80;30.00
4604;DHT22;2314;48.272;11.562;2022-08-14T13:02:01;31.00;31.70
4604;DHT22;2314;48.272;11.562;2022-08-14T13:04:28;31.10;30.70
4604;DHT22;2314;48.272;11.562;2022-08-14T13:07:03;31.30;30.80
4604;DHT22;2314;48.272;11.562;2022-08-14T13:09:34;31.00;29.20
4604;DHT22;2314;48.272;11.562;2022-08-14T13:12:03;31.20;30.00
4604;DHT22;2314;48.272;11.562;2022-08-14T13:14:31;31.20;30.80
4604;DHT22;2314;48.272;11.562;2022-08-14T13:16:59;31.30;31.90
4604;DHT22;2314;48.272;11.562;2022-08-14T13:19:27;31.40;30.30
4604;DHT22;2314;48.272;11.562;2022-08-14T13:21:56;31.40;29.30
4604;DHT22;2314;48.272;11.562;2022-08-14T13:24:24;31.50;29.40
4604;DHT22;2314;48.272;11.562;2022-08-14T13:26:54;31.50;27.20
4604;DHT22;2314;48.272;11.562;2022-08-14T13:29:25;31.70;28.70
4604;DHT22;2314;48.272;11.562;2022-08-14T13:31:55;31.50;30.40
4604;DHT22;2314;48.272;11.562;2022-08-14T13:34:24;31.20;29.00
4604;DHT22;2314;48.272;11.562;2022-08-14T13:36:53;31.00;28.40
4604;DHT22;2314;48.272;11.562;2022-08-14T13:39:24;31.10;30.30
4604;DHT22;2314;48.272;11.562;2022-08-14T13:41:55;31.10;28.40
4604;DHT22;2314;48.272;11.562;2022-08-14T13:44:33;31.30;28.80
4604;DHT22;2314;48.272;11.562;2022-08-14T13:47:01;30.70;28.60
4604;DHT22;2314;48.272;11.562;2022-08-14T13:49:31;31.00;28.00
4604;DHT22;2314;48.272;11.562;2022-08-14T13:52:00;31.20;26.80
4604;DHT22;2314;48.272;11.562;2022-08-14T13:54:30;31.10;27.70
4604;DHT22;2314;48.272;11.562;2022-08-14T13:57:01;30.70;27.40
4604;DHT22;2314;48.272;11.562;2022-08-14T13:59:29;30.80;27.00
4604;DHT22;2314;48.272;11.562;2022-08-14T14:02:03;30.80;28.80
4604;DHT22;2314;48.272;11.562;2022-08-14T14:04:32;31.10;26.60
4604;DHT22;2314;48.272;11.562;2022-08-14T14:07:08;31.10;26.30
4604;DHT22;2314;48.272;11.562;2022-08-14T14:09:40;31.10;28.30
4604;DHT22;2314;48.272;11.562;2022-08-14T14:12:09;30.70;27.40
4604;DHT22;2314;48.272;11.562;2022-08-14T14:14:38;30.60;28.20
4604;DHT22;2314;48.272;11.562;2022-08-14T14:17:09;30.60;27.10
4604;DHT22;2314;48.272;11.562;2022-08-14T14:19:40;30.40;26.90
4604;DHT22;2314;48.272;11.562;2022-08-14T14:22:07;30.30;27.10
4604;DHT22;2314;48.272;11.562;2022-08-14T14:24:34;30.40;28.30
4604;DHT22;2314;48.272;11.562;2022-08-14T14:27:04;30.40;26.50
4604;DHT22;2314;48.272;11.562;2022-08-14T14:29:35;30.30;26.20
4604;DHT22;2314;48.272;11.562;2022-08-14T14:32:03;30.30;27.60
4604;DHT22;2314;48.272;11.562;2022-08-14T14:34:30;30.40;28.90
4604;DHT22;2314;48.272;11.562;2022-08-14T14:36:59;30.60;26.30
4604;DHT22;2314;48.272;11.562;2022-08-14T14:39:31;30.70;26.30
4604;DHT22;2314;48.272;11.562;2022-08-14T14:42:00;30.60;26.90
4604;DHT22;2314;48.272;11.562;2022-08-14T14:44:34;30.40;26.30
4604;DHT22;2314;48.272;11.562;2022-08-14T14:47:09;30.30;27.80
4604;DHT22;2314;48.272;11.562;2022-08-14T14:49:38;30.30;27.30
4604;DHT22;2314;48.272;11.562;2022-08-14T14:52:08;30.40;26.60
4604;DHT22;2314;48.272;11.562;2022-08-14T14:54:36;30.30;28.40
4604;DHT22;2314;48.272;11.562;2022-08-14T14:57:03;30.00;27.60
4604;DHT22;2314;48.272;11.562;2022-08-14T14:59:31;30.00;27.90
4604;DHT22;2314;48.272;11.562;2022-08-14T15:02:02;29.90;27.00
4604;DHT22;2314;48.272;11.562;2022-08-14T15:04:32;29.90;26.50
4604;DHT22;2314;48.272;11.562;2022-08-14T15:07:00;29.90;27.40
4604;DHT22;2314;48.272;11.562;2022-08-14T15:09:28;30.10;27.20
4604;DHT22;2314;48.272;11.562;2022-08-14T15:11:55;30.20;27.50
4604;DHT22;2314;48.272;11.562;2022-08-14T15:14:22;30.10;28.00
4604;DHT22;2314;48.272;11.562;2022-08-14T15:16:49;30.20;27.00
4604;DHT22;2314;48.272;11.562;2022-08-14T15:19:17;30.00;27.10
4604;DHT22;2314;48.272;11.562;2022-08-14T15:21:45;30.10;27.10
4604;DHT22;2314;48.272;11.562;2022-08-14T15:24:13;29.90;27.30
4604;DHT22;2314;48.272;11.562;2022-08-14T15:26:40;30.00;27.40
4604;DHT22;2314;48.272;11.562;2022-08-14T15:29:09;30.00;27.30
4604;DHT22;2314;48.272;11.562;2022-08-14T15:31:39;29.80;28.10
4604;DHT22;2314;48.272;11.562;2022-08-14T15:34:08;29.80;27.50
4604;DHT22;2314;48.272;11.562;2022-08-14T15:36:41;29.90;28.10
4604;DHT22;2314;48.272;11.562;2022-08-14T15:39:10;30.00;27.90
4604;DHT22;2314;48.272;11.562;2022-08-14T15:41:38;29.90;27.60
4604;DHT22;2314;48.272;11.562;2022-08-14T15:44:05;29.80;28.80
4604;DHT22;2314;48.272;11.562;2022-08-14T15:46:36;29.80;27.30
4604;DHT22;2314;48.272;11.562;2022-08-14T15:49:04;29.80;28.50
4604;DHT22;2314;48.272;11.562;2022-08-14T15:51:32;29.70;27.90
4604;DHT22;2314;48.272;11.562;2022-08-14T15:54:01;29.70;27.90
4604;DHT22;2314;48.272;11.562;2022-08-14T15:56:28;29.70;27.90
4604;DHT22;2314;48.272;11.562;2022-08-14T15:58:55;29.70;28.00
4604;DHT22;2314;48.272;11.562;2022-08-14T16:01:22;29.50;27.30